Buoy 52514

sailwx.info

Track history (hours):
 
Tides and Currents Weather Stations Pressure Air Temp Water Temp Dewpoint Dewpoint Depression Visibility Wind Speed Wind Dir Waves Ship Positions

Drifting buoy 52514

Last reported at 2014-Dec-20 01:00 UTC. Time now 2014-Dec-20 02:20 UTC.
Position N 20°52' E 130°59'.

Date/timePositionNaut miles runAvg speedWind from/ knotsBaromVisibWave heightAir tempDewpointWater temp
2014-Dec-20 01:00N 20°52' E 130°59'0 0.2
2014-Dec-20 00:00N 20°52' E 130°58'1 0.4
2014-Dec-19 20:00N 20°53' E 130°59'0 0.2
2014-Dec-19 18:00N 20°53' E 130°59'1 0.3
2014-Dec-19 16:00N 20°53' E 130°59'0 0.1
2014-Dec-19 12:00N 20°53' E 130°58'1 0.5
2014-Dec-19 10:00N 20°53' E 130°60'0 0.0
2014-Dec-19 09:00N 20°53' E 130°60'0 0.3
2014-Dec-19 08:00N 20°52' E 130°60'0 0.3
2014-Dec-19 07:00N 20°52' E 130°60'0 0.0
2014-Dec-19 06:00N 20°52' E 130°60'1 0.6
2014-Dec-19 04:00N 20°51' E 131°00'0 0.0
2014-Dec-19 03:00N 20°51' E 131°00'1 0.4
2014-Dec-19 00:00N 20°51' E 131°01'0 0.0
2014-Dec-18 23:00N 20°51' E 131°01'1 0.6
2014-Dec-18 21:00N 20°51' E 131°03'1 0.8
2014-Dec-18 20:00N 20°51' E 131°04'2 0.8
2014-Dec-18 18:00N 20°51' E 131°05'0 0.0
2014-Dec-18 17:00N 20°51' E 131°05'0 0.2
2014-Dec-18 16:00N 20°52' E 131°05'0 0.0
2014-Dec-18 15:00N 20°52' E 131°05'2 0.8
2014-Dec-18 13:00N 20°51' E 131°07'3 0.5
2014-Dec-18 08:00N 20°53' E 131°09'2 1.5
2014-Dec-18 07:00N 20°55' E 131°10'0 0.0
2014-Dec-18 06:00N 20°55' E 131°10'0 0.0
2014-Dec-18 05:00N 20°55' E 131°10'0 0.1
2014-Dec-18 04:00N 20°55' E 131°10'1 0.4
2014-Dec-18 01:00N 20°56' E 131°09'1 0.6
2014-Dec-18 00:00N 20°56' E 131°10'1 0.3
2014-Dec-17 21:00N 20°55' E 131°10'1 0.6
2014-Dec-17 20:00N 20°55' E 131°11'1 0.6
2014-Dec-17 19:00N 20°55' E 131°12'0 0.4
2014-Dec-17 18:00N 20°54' E 131°12'0 0.0
2014-Dec-17 17:00N 20°54' E 131°12'0 0.0
2014-Dec-17 16:00N 20°54' E 131°12'2 0.6
2014-Dec-17 12:00N 20°53' E 131°14'0 0.0
2014-Dec-17 11:00N 20°53' E 131°14'2 1.9
2014-Dec-17 10:00N 20°53' E 131°16'2 2.1
2014-Dec-17 09:00N 20°53' E 131°18'0 0.0
2014-Dec-17 08:00N 20°53' E 131°18'2 1.6
2014-Dec-17 07:00N 20°54' E 131°19'2 2.0
2014-Dec-17 06:00N 20°55' E 131°21'0 0.1
2014-Dec-17 04:00N 20°55' E 131°21'0 0.0
2014-Dec-17 03:00N 20°55' E 131°21'5 5.0
2014-Dec-17 02:00N 20°59' E 131°25'0 0.3
2014-Dec-17 01:00N 20°59' E 131°25'0 0.0
2014-Dec-16 23:00N 20°59' E 131°25'1 0.3
2014-Dec-16 21:00N 20°59' E 131°25'1 1.0
2014-Dec-16 20:00N 20°59' E 131°26'1 0.7
2014-Dec-16 18:00N 21°00' E 131°25'0 0.0
2014-Dec-16 17:00N 21°00' E 131°25'8 0.4
2014-Dec-15 20:00N 21°04' E 131°33'1 1.3
2014-Dec-15 19:00N 21°04' E 131°34'0 0.0
2014-Dec-15 18:00N 21°04' E 131°34'0 0.0
2014-Dec-15 17:00N 21°04' E 131°34'0 0.0
2014-Dec-15 16:00N 21°04' E 131°34'0 0.0
2014-Dec-15 13:00N 21°04' E 131°34'0 0.0
2014-Dec-15 12:00N 21°04' E 131°34'0 0.0
2014-Dec-15 11:00N 21°04' E 131°34'2 0.8
2014-Dec-15 09:00N 21°03' E 131°35'0 0.0
2014-Dec-15 07:00N 21°03' E 131°35'1 0.6
2014-Dec-15 06:00N 21°03' E 131°36'0 0.0
2014-Dec-15 05:00N 21°03' E 131°36'0 0.0
2014-Dec-15 04:00N 21°03' E 131°36'2 0.9
2014-Dec-15 02:00N 21°02' E 131°38'0 0.0
2014-Dec-15 01:00N 21°02' E 131°38'1 0.6
2014-Dec-15 00:00N 21°02' E 131°38'1 0.4
2014-Dec-14 21:00N 21°02' E 131°40'1 1.3
2014-Dec-14 20:00N 21°01' E 131°40'2 1.7
2014-Dec-14 19:00N 21°01' E 131°42'0 0.0
2014-Dec-14 18:00N 21°01' E 131°42'0 0.0
2014-Dec-14 17:00N 21°01' E 131°42'0 0.0
2014-Dec-14 16:00N 21°01' E 131°42'4 1.4
2014-Dec-14 13:00N 20°59' E 131°46'0 0.0
2014-Dec-14 11:00N 20°59' E 131°46'1 0.3
2014-Dec-14 09:00N 20°59' E 131°47'1 1.2
2014-Dec-14 08:00N 21°01' E 131°47'0 0.0
2014-Dec-14 06:00N 21°01' E 131°47'2 2.2
2014-Dec-14 05:00N 21°01' E 131°49'2 1.7
2014-Dec-14 04:00N 21°01' E 131°47'1 0.3
2014-Dec-14 01:00N 21°01' E 131°48'0 0.1
2014-Dec-13 23:00N 21°01' E 131°49'8 0.4
2014-Dec-13 00:00N 21°01' E 131°57'1 0.3
2014-Dec-12 22:00N 21°00' E 131°58'1 1.1
2014-Dec-12 21:00N 21°01' E 131°59'0 0.2
2014-Dec-12 20:00N 21°01' E 131°59'0 0.0
2014-Dec-12 19:00N 21°01' E 131°59'1 0.1
2014-Dec-12 08:00N 21°01' E 131°60'0 0.1
2014-Dec-12 05:00N 21°01' E 131°60'1 0.7
2014-Dec-12 03:00N 20°60' E 132°01'0 0.2
2014-Dec-12 01:00N 21°00' E 132°01'0 0.0
2014-Dec-12 00:00N 21°00' E 132°01'3 0.5
2014-Dec-11 18:00N 21°01' E 132°04'1 0.7
2014-Dec-11 17:00N 21°02' E 132°04'1 0.5
2014-Dec-11 16:00N 21°02' E 132°04'0 0.0
2014-Dec-11 15:00N 21°02' E 132°04'1 0.4
2014-Dec-11 13:00N 21°03' E 132°04'0 0.0
2014-Dec-11 12:00N 21°03' E 132°04'1 0.4
2014-Dec-11 09:00N 21°04' E 132°05'1 0.5
2014-Dec-11 07:00N 21°04' E 132°04'0 0.1
2014-Dec-11 05:00N 21°04' E 132°04'1 0.2
2014-Dec-11 01:00N 21°03' E 132°04'1 0.9
2014-Dec-11 00:00N 21°03' E 132°05'0 0.0
2014-Dec-10 23:00N 21°03' E 132°05'0 0.2
2014-Dec-10 21:00N 21°03' E 132°05'0 0.0
2014-Dec-10 20:00N 21°03' E 132°05'1 0.5
2014-Dec-10 18:00N 21°02' E 132°06'1 0.6
2014-Dec-10 16:00N 21°02' E 132°07'3 0.6
2014-Dec-10 12:00N 21°01' E 132°10'2 0.9
2014-Dec-10 10:00N 21°02' E 132°12'0 0.0
2014-Dec-10 09:00N 21°02' E 132°12'2 2.4
2014-Dec-10 08:00N 21°04' E 132°13'3 1.0
2014-Dec-10 05:00N 21°07' E 132°14'  
Track history (hours):
 
Tides and Currents Weather Stations Pressure Air Temp Water Temp Dewpoint Dewpoint Depression Visibility Wind Speed Wind Dir Waves Ship Positions

Drifting buoy 52514

Last reported at 2014-Dec-20 01:00 UTC. Time now 2014-Dec-20 02:20 UTC.
Position N 20°52' E 130°59'.

Date/timePositionNaut miles runAvg speedWind from/ knotsBaromVisibWave heightAir tempDewpointWater temp
2014-Dec-20 01:00N 20°52' E 130°59'0 0.2
2014-Dec-20 00:00N 20°52' E 130°58'1 0.4
2014-Dec-19 20:00N 20°53' E 130°59'0 0.2
2014-Dec-19 18:00N 20°53' E 130°59'1 0.3
2014-Dec-19 16:00N 20°53' E 130°59'0 0.1
2014-Dec-19 12:00N 20°53' E 130°58'1 0.5
2014-Dec-19 10:00N 20°53' E 130°60'0 0.0
2014-Dec-19 09:00N 20°53' E 130°60'0 0.3
2014-Dec-19 08:00N 20°52' E 130°60'0 0.3
2014-Dec-19 07:00N 20°52' E 130°60'0 0.0
2014-Dec-19 06:00N 20°52' E 130°60'1 0.6
2014-Dec-19 04:00N 20°51' E 131°00'0 0.0
2014-Dec-19 03:00N 20°51' E 131°00'1 0.4
2014-Dec-19 00:00N 20°51' E 131°01'0 0.0
2014-Dec-18 23:00N 20°51' E 131°01'1 0.6
2014-Dec-18 21:00N 20°51' E 131°03'1 0.8
2014-Dec-18 20:00N 20°51' E 131°04'2 0.8
2014-Dec-18 18:00N 20°51' E 131°05'0 0.0
2014-Dec-18 17:00N 20°51' E 131°05'0 0.2
2014-Dec-18 16:00N 20°52' E 131°05'0 0.0
2014-Dec-18 15:00N 20°52' E 131°05'2 0.8
2014-Dec-18 13:00N 20°51' E 131°07'3 0.5
2014-Dec-18 08:00N 20°53' E 131°09'2 1.5
2014-Dec-18 07:00N 20°55' E 131°10'0 0.0
2014-Dec-18 06:00N 20°55' E 131°10'0 0.0
2014-Dec-18 05:00N 20°55' E 131°10'0 0.1
2014-Dec-18 04:00N 20°55' E 131°10'1 0.4
2014-Dec-18 01:00N 20°56' E 131°09'1 0.6
2014-Dec-18 00:00N 20°56' E 131°10'1 0.3
2014-Dec-17 21:00N 20°55' E 131°10'1 0.6
2014-Dec-17 20:00N 20°55' E 131°11'1 0.6
2014-Dec-17 19:00N 20°55' E 131°12'0 0.4
2014-Dec-17 18:00N 20°54' E 131°12'0 0.0
2014-Dec-17 17:00N 20°54' E 131°12'0 0.0
2014-Dec-17 16:00N 20°54' E 131°12'2 0.6
2014-Dec-17 12:00N 20°53' E 131°14'0 0.0
2014-Dec-17 11:00N 20°53' E 131°14'2 1.9
2014-Dec-17 10:00N 20°53' E 131°16'2 2.1
2014-Dec-17 09:00N 20°53' E 131°18'0 0.0
2014-Dec-17 08:00N 20°53' E 131°18'2 1.6
2014-Dec-17 07:00N 20°54' E 131°19'2 2.0
2014-Dec-17 06:00N 20°55' E 131°21'0 0.1
2014-Dec-17 04:00N 20°55' E 131°21'0 0.0
2014-Dec-17 03:00N 20°55' E 131°21'5 5.0
2014-Dec-17 02:00N 20°59' E 131°25'0 0.3
2014-Dec-17 01:00N 20°59' E 131°25'0 0.0
2014-Dec-16 23:00N 20°59' E 131°25'1 0.3
2014-Dec-16 21:00N 20°59' E 131°25'1 1.0
2014-Dec-16 20:00N 20°59' E 131°26'1 0.7
2014-Dec-16 18:00N 21°00' E 131°25'0 0.0
2014-Dec-16 17:00N 21°00' E 131°25'8 0.4
2014-Dec-15 20:00N 21°04' E 131°33'1 1.3
2014-Dec-15 19:00N 21°04' E 131°34'0 0.0
2014-Dec-15 18:00N 21°04' E 131°34'0 0.0
2014-Dec-15 17:00N 21°04' E 131°34'0 0.0
2014-Dec-15 16:00N 21°04' E 131°34'0 0.0
2014-Dec-15 13:00N 21°04' E 131°34'0 0.0
2014-Dec-15 12:00N 21°04' E 131°34'0 0.0
2014-Dec-15 11:00N 21°04' E 131°34'2 0.8
2014-Dec-15 09:00N 21°03' E 131°35'0 0.0
2014-Dec-15 07:00N 21°03' E 131°35'1 0.6
2014-Dec-15 06:00N 21°03' E 131°36'0 0.0
2014-Dec-15 05:00N 21°03' E 131°36'0 0.0
2014-Dec-15 04:00N 21°03' E 131°36'2 0.9
2014-Dec-15 02:00N 21°02' E 131°38'0 0.0
2014-Dec-15 01:00N 21°02' E 131°38'1 0.6
2014-Dec-15 00:00N 21°02' E 131°38'1 0.4
2014-Dec-14 21:00N 21°02' E 131°40'1 1.3
2014-Dec-14 20:00N 21°01' E 131°40'2 1.7
2014-Dec-14 19:00N 21°01' E 131°42'0 0.0
2014-Dec-14 18:00N 21°01' E 131°42'0 0.0
2014-Dec-14 17:00N 21°01' E 131°42'0 0.0
2014-Dec-14 16:00N 21°01' E 131°42'4 1.4
2014-Dec-14 13:00N 20°59' E 131°46'0 0.0
2014-Dec-14 11:00N 20°59' E 131°46'1 0.3
2014-Dec-14 09:00N 20°59' E 131°47'1 1.2
2014-Dec-14 08:00N 21°01' E 131°47'0 0.0
2014-Dec-14 06:00N 21°01' E 131°47'2 2.2
2014-Dec-14 05:00N 21°01' E 131°49'2 1.7
2014-Dec-14 04:00N 21°01' E 131°47'1 0.3
2014-Dec-14 01:00N 21°01' E 131°48'0 0.1
2014-Dec-13 23:00N 21°01' E 131°49'8 0.4
2014-Dec-13 00:00N 21°01' E 131°57'1 0.3
2014-Dec-12 22:00N 21°00' E 131°58'1 1.1
2014-Dec-12 21:00N 21°01' E 131°59'0 0.2
2014-Dec-12 20:00N 21°01' E 131°59'0 0.0
2014-Dec-12 19:00N 21°01' E 131°59'1 0.1
2014-Dec-12 08:00N 21°01' E 131°60'0 0.1
2014-Dec-12 05:00N 21°01' E 131°60'1 0.7
2014-Dec-12 03:00N 20°60' E 132°01'0 0.2
2014-Dec-12 01:00N 21°00' E 132°01'0 0.0
2014-Dec-12 00:00N 21°00' E 132°01'3 0.5
2014-Dec-11 18:00N 21°01' E 132°04'1 0.7
2014-Dec-11 17:00N 21°02' E 132°04'1 0.5
2014-Dec-11 16:00N 21°02' E 132°04'0 0.0
2014-Dec-11 15:00N 21°02' E 132°04'1 0.4
2014-Dec-11 13:00N 21°03' E 132°04'0 0.0
2014-Dec-11 12:00N 21°03' E 132°04'1 0.4
2014-Dec-11 09:00N 21°04' E 132°05'1 0.5
2014-Dec-11 07:00N 21°04' E 132°04'0 0.1
2014-Dec-11 05:00N 21°04' E 132°04'1 0.2
2014-Dec-11 01:00N 21°03' E 132°04'1 0.9
2014-Dec-11 00:00N 21°03' E 132°05'0 0.0
2014-Dec-10 23:00N 21°03' E 132°05'0 0.2
2014-Dec-10 21:00N 21°03' E 132°05'0 0.0
2014-Dec-10 20:00N 21°03' E 132°05'1 0.5
2014-Dec-10 18:00N 21°02' E 132°06'1 0.6
2014-Dec-10 16:00N 21°02' E 132°07'3 0.6
2014-Dec-10 12:00N 21°01' E 132°10'2 0.9
2014-Dec-10 10:00N 21°02' E 132°12'0 0.0
2014-Dec-10 09:00N 21°02' E 132°12'2 2.4
2014-Dec-10 08:00N 21°04' E 132°13'3 1.0
2014-Dec-10 05:00N 21°07' E 132°14'  

Dump ship's entire track history